createdAt,value
2022-09-26T00:11:47.881Z,11.9
2022-09-26T00:25:47.955Z,11.9
2022-09-26T00:39:47.926Z,11.7
2022-09-26T00:53:48.019Z,11.7
2022-09-26T01:07:48.006Z,11.4
2022-09-26T01:21:48.029Z,11.2
2022-09-26T01:35:48.086Z,11.0
2022-09-26T01:49:48.046Z,10.8
2022-09-26T02:03:48.067Z,10.9
2022-09-26T02:17:48.092Z,10.7
2022-09-26T02:31:48.140Z,10.7
2022-09-26T02:45:48.227Z,10.7
2022-09-26T02:59:48.251Z,10.4
2022-09-26T03:13:48.264Z,10.2
2022-09-26T03:27:48.261Z,10.4
2022-09-26T03:41:48.269Z,10.4
2022-09-26T03:55:48.270Z,10.3
2022-09-26T04:09:48.272Z,10.3
2022-09-26T04:23:48.301Z,10.3
2022-09-26T04:37:48.343Z,10.0
2022-09-26T04:51:48.383Z,9.7
2022-09-26T05:06:48.386Z,9.4
2022-09-26T05:21:48.405Z,9.6
2022-09-26T05:36:48.421Z,9.5
2022-09-26T05:52:48.432Z,9.8
2022-09-26T06:07:48.428Z,10.3
2022-09-26T06:22:48.455Z,10.8
2022-09-26T06:37:48.464Z,11.4
2022-09-26T06:52:48.562Z,12.3
2022-09-26T07:07:48.589Z,14.4
2022-09-26T07:22:48.544Z,18.1
2022-09-26T07:37:48.580Z,19.0
2022-09-26T07:52:48.599Z,18.4
2022-09-26T08:07:48.586Z,19.1
2022-09-26T08:22:48.561Z,21.6
2022-09-26T08:37:48.605Z,21.0
2022-09-26T08:52:48.605Z,20.3
2022-09-26T09:07:48.816Z,21.7
2022-09-26T09:22:48.851Z,21.1
2022-09-26T09:37:48.863Z,21.5
2022-09-26T09:52:48.869Z,21.8
2022-09-26T10:07:48.910Z,22.0
2022-09-26T10:22:48.977Z,23.1
2022-09-26T10:37:49.006Z,22.1
2022-09-26T10:45:33.707Z,21.8
2022-09-26T11:00:34.005Z,21.1
2022-09-26T11:15:34.505Z,20.8
2022-09-26T11:30:34.751Z,21.5
2022-09-26T11:45:38.709Z,21.2
2022-09-26T12:00:34.631Z,22.9
2022-09-26T12:15:34.764Z,23.2
2022-09-26T12:30:34.680Z,23.8
2022-09-26T12:45:34.671Z,23.1
2022-09-26T13:00:34.717Z,24.2
2022-09-26T13:15:34.718Z,22.3
2022-09-26T13:30:34.780Z,22.0
2022-09-26T13:45:34.831Z,22.4
2022-09-26T14:00:34.901Z,21.9
2022-09-26T14:15:34.898Z,21.6
2022-09-26T14:30:34.837Z,21.8
2022-09-26T14:45:34.850Z,21.4
2022-09-26T15:00:34.904Z,21.1
2022-09-26T15:15:34.914Z,20.3
2022-09-26T15:30:34.923Z,19.8
2022-09-26T15:45:34.949Z,19.6
2022-09-26T16:00:35.843Z,20.6
2022-09-26T16:15:35.570Z,19.4
2022-09-26T16:30:35.063Z,18.1
2022-09-26T16:39:02.714Z,17.8
2022-09-26T16:55:03.235Z,17.6
2022-09-26T17:10:03.268Z,17.3
2022-09-26T17:25:03.469Z,16.9
2022-09-26T17:41:03.863Z,16.8
2022-09-26T17:55:05.014Z,16.6
2022-09-26T18:09:04.995Z,16.6
2022-09-26T18:23:04.248Z,16.8
2022-09-26T18:37:05.214Z,17.0
2022-09-26T18:51:04.358Z,16.9
2022-09-26T19:05:05.527Z,16.9
2022-09-26T19:19:05.258Z,16.8
2022-09-26T19:33:05.324Z,16.7
2022-09-26T19:47:05.406Z,16.5
2022-09-26T20:01:05.629Z,16.6
2022-09-26T20:15:05.737Z,16.5
2022-09-26T20:29:06.186Z,16.3
2022-09-26T20:43:05.723Z,16.4
2022-09-26T20:57:05.739Z,16.3
2022-09-26T21:11:05.704Z,16.5
2022-09-26T21:25:05.731Z,16.3
2022-09-26T21:39:06.765Z,15.9
2022-09-26T21:53:06.720Z,15.2
2022-09-26T22:07:05.869Z,14.9
2022-09-26T22:21:06.137Z,14.6
2022-09-26T22:35:05.908Z,14.3
2022-09-26T22:49:05.931Z,14.3
2022-09-26T23:03:06.794Z,14.4
2022-09-26T23:17:06.754Z,14.4
2022-09-26T23:31:06.775Z,14.5
2022-09-26T23:45:06.450Z,14.5
2022-09-26T23:59:06.793Z,14.3
